sensor_id;sensor_type;location;lat;lon;timestamp;P1;durP1;ratioP1;P2;durP2;ratioP2
74670;SDS011;63196;39.564;2.628;2023-03-26T00:00:57;5.60;;;2.90;;
74670;SDS011;63196;39.564;2.628;2023-03-26T00:03:23;4.60;;;1.00;;
74670;SDS011;63196;39.564;2.628;2023-03-26T00:06:12;7.30;;;2.00;;
74670;SDS011;63196;39.564;2.628;2023-03-26T00:08:39;6.80;;;2.90;;
74670;SDS011;63196;39.564;2.628;2023-03-26T00:11:05;10.30;;;3.00;;
74670;SDS011;63196;39.564;2.628;2023-03-26T00:13:31;9.30;;;2.50;;
74670;SDS011;63196;39.564;2.628;2023-03-26T00:15:57;7.20;;;3.10;;
74670;SDS011;63196;39.564;2.628;2023-03-26T00:18:23;6.70;;;1.70;;
74670;SDS011;63196;39.564;2.628;2023-03-26T00:20:58;5.00;;;2.40;;
74670;SDS011;63196;39.564;2.628;2023-03-26T00:23:26;6.20;;;2.70;;
74670;SDS011;63196;39.564;2.628;2023-03-26T00:25:53;10.50;;;3.10;;
74670;SDS011;63196;39.564;2.628;2023-03-26T00:28:20;7.50;;;3.50;;
74670;SDS011;63196;39.564;2.628;2023-03-26T00:30:46;7.40;;;2.60;;
74670;SDS011;63196;39.564;2.628;2023-03-26T00:33:12;6.40;;;2.50;;
74670;SDS011;63196;39.564;2.628;2023-03-26T00:35:41;7.00;;;2.70;;
74670;SDS011;63196;39.564;2.628;2023-03-26T00:38:15;8.70;;;3.00;;
74670;SDS011;63196;39.564;2.628;2023-03-26T00:40:41;7.20;;;3.00;;
74670;SDS011;63196;39.564;2.628;2023-03-26T00:43:09;10.90;;;2.20;;
74670;SDS011;63196;39.564;2.628;2023-03-26T00:45:43;7.00;;;2.70;;
74670;SDS011;63196;39.564;2.628;2023-03-26T00:48:10;5.60;;;2.80;;
74670;SDS011;63196;39.564;2.628;2023-03-26T00:50:37;6.90;;;3.30;;
74670;SDS011;63196;39.564;2.628;2023-03-26T00:53:02;5.00;;;2.20;;
74670;SDS011;63196;39.564;2.628;2023-03-26T00:55:29;6.70;;;2.90;;
74670;SDS011;63196;39.564;2.628;2023-03-26T00:57:54;6.90;;;2.60;;
74670;SDS011;63196;39.564;2.628;2023-03-26T01:00:26;9.50;;;3.40;;
74670;SDS011;63196;39.564;2.628;2023-03-26T01:02:55;5.60;;;2.50;;
74670;SDS011;63196;39.564;2.628;2023-03-26T01:08:15;7.70;;;3.80;;
74670;SDS011;63196;39.564;2.628;2023-03-26T01:10:42;8.10;;;2.60;;
74670;SDS011;63196;39.564;2.628;2023-03-26T01:13:23;9.70;;;4.10;;
74670;SDS011;63196;39.564;2.628;2023-03-26T01:15:49;11.00;;;4.10;;
74670;SDS011;63196;39.564;2.628;2023-03-26T01:18:20;9.90;;;3.10;;
74670;SDS011;63196;39.564;2.628;2023-03-26T01:20:51;4.60;;;2.20;;
74670;SDS011;63196;39.564;2.628;2023-03-26T01:23:19;7.90;;;3.40;;
74670;SDS011;63196;39.564;2.628;2023-03-26T01:25:48;9.50;;;3.80;;
74670;SDS011;63196;39.564;2.628;2023-03-26T01:28:15;12.30;;;4.40;;
74670;SDS011;63196;39.564;2.628;2023-03-26T01:33:38;8.50;;;4.00;;
74670;SDS011;63196;39.564;2.628;2023-03-26T01:36:14;8.40;;;3.60;;
74670;SDS011;63196;39.564;2.628;2023-03-26T01:38:47;11.10;;;4.50;;
74670;SDS011;63196;39.564;2.628;2023-03-26T01:41:22;8.40;;;3.90;;
74670;SDS011;63196;39.564;2.628;2023-03-26T01:43:59;9.40;;;4.30;;
74670;SDS011;63196;39.564;2.628;2023-03-26T01:46:28;6.00;;;3.70;;
74670;SDS011;63196;39.564;2.628;2023-03-26T01:48:54;10.60;;;4.00;;
74670;SDS011;63196;39.564;2.628;2023-03-26T01:51:29;12.40;;;3.90;;
74670;SDS011;63196;39.564;2.628;2023-03-26T01:53:55;9.60;;;3.80;;
74670;SDS011;63196;39.564;2.628;2023-03-26T01:58:54;10.50;;;4.30;;
74670;SDS011;63196;39.564;2.628;2023-03-26T02:01:26;8.00;;;3.60;;
74670;SDS011;63196;39.564;2.628;2023-03-26T02:04:05;6.60;;;3.10;;
74670;SDS011;63196;39.564;2.628;2023-03-26T02:06:37;7.50;;;2.90;;
74670;SDS011;63196;39.564;2.628;2023-03-26T02:09:09;8.80;;;3.70;;
74670;SDS011;63196;39.564;2.628;2023-03-26T02:11:36;6.20;;;3.40;;
74670;SDS011;63196;39.564;2.628;2023-03-26T02:14:03;10.30;;;3.30;;
74670;SDS011;63196;39.564;2.628;2023-03-26T02:16:29;9.30;;;3.80;;
74670;SDS011;63196;39.564;2.628;2023-03-26T02:18:55;8.20;;;3.50;;
74670;SDS011;63196;39.564;2.628;2023-03-26T02:23:51;6.60;;;3.50;;
74670;SDS011;63196;39.564;2.628;2023-03-26T02:26:27;9.50;;;3.10;;
74670;SDS011;63196;39.564;2.628;2023-03-26T02:28:53;9.30;;;3.00;;
74670;SDS011;63196;39.564;2.628;2023-03-26T02:31:18;6.10;;;2.80;;
74670;SDS011;63196;39.564;2.628;2023-03-26T02:33:43;4.80;;;1.70;;
74670;SDS011;63196;39.564;2.628;2023-03-26T02:36:12;6.70;;;2.90;;
74670;SDS011;63196;39.564;2.628;2023-03-26T02:38:39;7.10;;;3.10;;
74670;SDS011;63196;39.564;2.628;2023-03-26T02:41:06;5.80;;;1.70;;
74670;SDS011;63196;39.564;2.628;2023-03-26T02:43:31;5.90;;;2.50;;
74670;SDS011;63196;39.564;2.628;2023-03-26T02:45:57;10.90;;;2.40;;
74670;SDS011;63196;39.564;2.628;2023-03-26T02:48:22;7.50;;;2.90;;
74670;SDS011;63196;39.564;2.628;2023-03-26T02:50:48;6.70;;;2.70;;
74670;SDS011;63196;39.564;2.628;2023-03-26T02:53:15;6.30;;;3.40;;
74670;SDS011;63196;39.564;2.628;2023-03-26T02:55:41;8.80;;;2.60;;
74670;SDS011;63196;39.564;2.628;2023-03-26T02:58:06;7.90;;;2.20;;
74670;SDS011;63196;39.564;2.628;2023-03-26T03:00:32;7.20;;;2.70;;
74670;SDS011;63196;39.564;2.628;2023-03-26T03:02:58;5.90;;;2.90;;
74670;SDS011;63196;39.564;2.628;2023-03-26T03:05:24;6.00;;;2.80;;
74670;SDS011;63196;39.564;2.628;2023-03-26T03:07:55;9.90;;;3.90;;
74670;SDS011;63196;39.564;2.628;2023-03-26T03:10:26;5.80;;;2.50;;
74670;SDS011;63196;39.564;2.628;2023-03-26T03:12:52;7.00;;;3.90;;
74670;SDS011;63196;39.564;2.628;2023-03-26T03:15:18;9.70;;;4.10;;
74670;SDS011;63196;39.564;2.628;2023-03-26T03:17:44;8.70;;;3.20;;
74670;SDS011;63196;39.564;2.628;2023-03-26T03:20:09;7.90;;;3.20;;
74670;SDS011;63196;39.564;2.628;2023-03-26T03:22:36;5.90;;;2.80;;
74670;SDS011;63196;39.564;2.628;2023-03-26T03:25:02;5.80;;;2.70;;
74670;SDS011;63196;39.564;2.628;2023-03-26T03:27:28;8.00;;;3.90;;
74670;SDS011;63196;39.564;2.628;2023-03-26T03:29:55;8.00;;;3.70;;
74670;SDS011;63196;39.564;2.628;2023-03-26T03:32:21;3.60;;;1.90;;
74670;SDS011;63196;39.564;2.628;2023-03-26T03:34:47;10.30;;;4.70;;
74670;SDS011;63196;39.564;2.628;2023-03-26T03:37:15;9.30;;;4.50;;
74670;SDS011;63196;39.564;2.628;2023-03-26T03:39:40;9.40;;;4.40;;
74670;SDS011;63196;39.564;2.628;2023-03-26T03:42:06;9.40;;;4.50;;
74670;SDS011;63196;39.564;2.628;2023-03-26T03:44:32;7.40;;;4.40;;
74670;SDS011;63196;39.564;2.628;2023-03-26T03:46:57;12.70;;;4.20;;
74670;SDS011;63196;39.564;2.628;2023-03-26T03:49:24;11.30;;;5.50;;
74670;SDS011;63196;39.564;2.628;2023-03-26T03:51:49;10.30;;;4.60;;
74670;SDS011;63196;39.564;2.628;2023-03-26T03:54:14;7.90;;;4.60;;
74670;SDS011;63196;39.564;2.628;2023-03-26T03:56:40;9.20;;;4.40;;
74670;SDS011;63196;39.564;2.628;2023-03-26T03:59:05;8.60;;;3.60;;
74670;SDS011;63196;39.564;2.628;2023-03-26T04:01:33;14.80;;;5.60;;
74670;SDS011;63196;39.564;2.628;2023-03-26T04:03:58;10.30;;;4.50;;
74670;SDS011;63196;39.564;2.628;2023-03-26T04:06:24;12.40;;;5.60;;
74670;SDS011;63196;39.564;2.628;2023-03-26T04:08:50;7.50;;;3.70;;
74670;SDS011;63196;39.564;2.628;2023-03-26T04:11:16;10.00;;;3.80;;
74670;SDS011;63196;39.564;2.628;2023-03-26T04:13:42;10.00;;;4.60;;
74670;SDS011;63196;39.564;2.628;2023-03-26T04:16:08;10.60;;;4.20;;
74670;SDS011;63196;39.564;2.628;2023-03-26T04:18:33;8.10;;;4.00;;
74670;SDS011;63196;39.564;2.628;2023-03-26T04:21:00;9.50;;;4.20;;
74670;SDS011;63196;39.564;2.628;2023-03-26T04:23:28;9.80;;;3.30;;
74670;SDS011;63196;39.564;2.628;2023-03-26T04:25:53;14.70;;;5.90;;
74670;SDS011;63196;39.564;2.628;2023-03-26T04:28:30;8.80;;;4.90;;
74670;SDS011;63196;39.564;2.628;2023-03-26T04:30:56;9.30;;;4.40;;
74670;SDS011;63196;39.564;2.628;2023-03-26T04:33:26;10.80;;;4.00;;
74670;SDS011;63196;39.564;2.628;2023-03-26T04:35:52;8.70;;;5.10;;
74670;SDS011;63196;39.564;2.628;2023-03-26T04:38:18;7.80;;;3.70;;
74670;SDS011;63196;39.564;2.628;2023-03-26T04:40:45;9.40;;;3.60;;
74670;SDS011;63196;39.564;2.628;2023-03-26T04:43:14;9.20;;;4.00;;
74670;SDS011;63196;39.564;2.628;2023-03-26T04:45:42;8.30;;;4.40;;
74670;SDS011;63196;39.564;2.628;2023-03-26T04:48:10;6.50;;;3.00;;
74670;SDS011;63196;39.564;2.628;2023-03-26T04:50:39;7.00;;;3.30;;
74670;SDS011;63196;39.564;2.628;2023-03-26T04:53:05;7.90;;;3.30;;
74670;SDS011;63196;39.564;2.628;2023-03-26T04:55:32;8.20;;;3.80;;
74670;SDS011;63196;39.564;2.628;2023-03-26T04:57:59;9.20;;;4.50;;
74670;SDS011;63196;39.564;2.628;2023-03-26T05:00:27;8.40;;;4.10;;
74670;SDS011;63196;39.564;2.628;2023-03-26T05:02:54;11.30;;;5.10;;
74670;SDS011;63196;39.564;2.628;2023-03-26T05:05:22;6.70;;;3.20;;
74670;SDS011;63196;39.564;2.628;2023-03-26T05:07:47;7.80;;;3.90;;
74670;SDS011;63196;39.564;2.628;2023-03-26T05:10:13;7.40;;;3.70;;
74670;SDS011;63196;39.564;2.628;2023-03-26T05:12:40;8.00;;;3.70;;
74670;SDS011;63196;39.564;2.628;2023-03-26T05:15:07;9.60;;;3.90;;
74670;SDS011;63196;39.564;2.628;2023-03-26T05:17:33;8.80;;;3.90;;
74670;SDS011;63196;39.564;2.628;2023-03-26T05:20:06;7.80;;;3.60;;
74670;SDS011;63196;39.564;2.628;2023-03-26T05:22:32;12.50;;;6.20;;
74670;SDS011;63196;39.564;2.628;2023-03-26T05:24:57;9.30;;;3.60;;
74670;SDS011;63196;39.564;2.628;2023-03-26T05:27:22;11.60;;;5.10;;
74670;SDS011;63196;39.564;2.628;2023-03-26T05:29:48;11.20;;;4.20;;
74670;SDS011;63196;39.564;2.628;2023-03-26T05:32:14;13.90;;;5.30;;
74670;SDS011;63196;39.564;2.628;2023-03-26T05:34:40;13.50;;;4.90;;
74670;SDS011;63196;39.564;2.628;2023-03-26T05:37:05;15.20;;;5.80;;
74670;SDS011;63196;39.564;2.628;2023-03-26T05:39:33;12.20;;;5.70;;
74670;SDS011;63196;39.564;2.628;2023-03-26T05:41:59;9.40;;;4.20;;
74670;SDS011;63196;39.564;2.628;2023-03-26T05:44:25;10.10;;;3.80;;
74670;SDS011;63196;39.564;2.628;2023-03-26T05:46:50;8.20;;;3.30;;
74670;SDS011;63196;39.564;2.628;2023-03-26T05:49:15;11.70;;;5.00;;
74670;SDS011;63196;39.564;2.628;2023-03-26T05:51:41;11.80;;;5.60;;
74670;SDS011;63196;39.564;2.628;2023-03-26T05:54:06;7.40;;;3.50;;
74670;SDS011;63196;39.564;2.628;2023-03-26T05:56:31;9.80;;;4.50;;
74670;SDS011;63196;39.564;2.628;2023-03-26T05:58:57;12.80;;;4.50;;
74670;SDS011;63196;39.564;2.628;2023-03-26T06:01:22;9.10;;;4.10;;
74670;SDS011;63196;39.564;2.628;2023-03-26T06:03:50;10.60;;;4.90;;
74670;SDS011;63196;39.564;2.628;2023-03-26T06:06:17;9.80;;;3.90;;
74670;SDS011;63196;39.564;2.628;2023-03-26T06:08:43;10.90;;;5.10;;
74670;SDS011;63196;39.564;2.628;2023-03-26T06:11:12;7.20;;;3.90;;
74670;SDS011;63196;39.564;2.628;2023-03-26T06:13:38;7.10;;;3.20;;
74670;SDS011;63196;39.564;2.628;2023-03-26T06:16:04;7.10;;;3.70;;
74670;SDS011;63196;39.564;2.628;2023-03-26T06:18:30;7.30;;;2.80;;
74670;SDS011;63196;39.564;2.628;2023-03-26T06:20:55;11.30;;;4.40;;
74670;SDS011;63196;39.564;2.628;2023-03-26T06:23:21;7.30;;;3.30;;
74670;SDS011;63196;39.564;2.628;2023-03-26T06:25:47;8.40;;;3.70;;
74670;SDS011;63196;39.564;2.628;2023-03-26T06:28:13;9.40;;;3.20;;
74670;SDS011;63196;39.564;2.628;2023-03-26T06:30:38;8.00;;;3.30;;
74670;SDS011;63196;39.564;2.628;2023-03-26T06:33:05;9.20;;;4.70;;
74670;SDS011;63196;39.564;2.628;2023-03-26T06:35:30;9.40;;;3.80;;
74670;SDS011;63196;39.564;2.628;2023-03-26T06:37:56;8.30;;;3.50;;
74670;SDS011;63196;39.564;2.628;2023-03-26T06:40:22;7.70;;;3.60;;
74670;SDS011;63196;39.564;2.628;2023-03-26T06:42:47;7.30;;;4.10;;
74670;SDS011;63196;39.564;2.628;2023-03-26T06:45:13;9.70;;;4.20;;
74670;SDS011;63196;39.564;2.628;2023-03-26T06:47:38;11.10;;;5.30;;
74670;SDS011;63196;39.564;2.628;2023-03-26T06:50:04;8.30;;;4.50;;
74670;SDS011;63196;39.564;2.628;2023-03-26T06:52:30;14.30;;;4.90;;
74670;SDS011;63196;39.564;2.628;2023-03-26T06:54:55;11.40;;;4.70;;
74670;SDS011;63196;39.564;2.628;2023-03-26T06:57:21;8.30;;;3.50;;
74670;SDS011;63196;39.564;2.628;2023-03-26T06:59:46;10.60;;;4.30;;
74670;SDS011;63196;39.564;2.628;2023-03-26T07:02:11;10.60;;;5.10;;
74670;SDS011;63196;39.564;2.628;2023-03-26T07:04:37;13.80;;;4.70;;
74670;SDS011;63196;39.564;2.628;2023-03-26T07:07:02;8.10;;;3.20;;
74670;SDS011;63196;39.564;2.628;2023-03-26T07:09:28;8.30;;;4.20;;
74670;SDS011;63196;39.564;2.628;2023-03-26T07:11:55;9.60;;;4.30;;
74670;SDS011;63196;39.564;2.628;2023-03-26T07:14:20;8.60;;;4.40;;
74670;SDS011;63196;39.564;2.628;2023-03-26T07:16:45;9.30;;;4.10;;
74670;SDS011;63196;39.564;2.628;2023-03-26T07:19:11;10.00;;;5.10;;
74670;SDS011;63196;39.564;2.628;2023-03-26T07:21:36;11.10;;;5.20;;
74670;SDS011;63196;39.564;2.628;2023-03-26T07:24:02;10.40;;;5.00;;
74670;SDS011;63196;39.564;2.628;2023-03-26T07:31:48;11.80;;;4.90;;
74670;SDS011;63196;39.564;2.628;2023-03-26T07:36:48;11.80;;;6.00;;
74670;SDS011;63196;39.564;2.628;2023-03-26T07:46:40;8.00;;;4.10;;
74670;SDS011;63196;39.564;2.628;2023-03-26T07:49:08;8.40;;;4.40;;
74670;SDS011;63196;39.564;2.628;2023-03-26T07:51:36;10.00;;;5.00;;
74670;SDS011;63196;39.564;2.628;2023-03-26T07:54:01;6.60;;;2.80;;
74670;SDS011;63196;39.564;2.628;2023-03-26T08:08:49;8.10;;;3.90;;
74670;SDS011;63196;39.564;2.628;2023-03-26T08:11:21;11.00;;;4.40;;
74670;SDS011;63196;39.564;2.628;2023-03-26T08:14:01;7.00;;;2.50;;
74670;SDS011;63196;39.564;2.628;2023-03-26T08:21:26;7.30;;;2.60;;
74670;SDS011;63196;39.564;2.628;2023-03-26T08:31:37;4.90;;;2.40;;
74670;SDS011;63196;39.564;2.628;2023-03-26T08:34:04;6.20;;;2.80;;
74670;SDS011;63196;39.564;2.628;2023-03-26T08:36:29;6.30;;;3.00;;
74670;SDS011;63196;39.564;2.628;2023-03-26T08:38:56;9.60;;;3.80;;
74670;SDS011;63196;39.564;2.628;2023-03-26T08:44:30;6.30;;;2.70;;
74670;SDS011;63196;39.564;2.628;2023-03-26T09:05:17;5.30;;;2.70;;
74670;SDS011;63196;39.564;2.628;2023-03-26T09:08:50;5.50;;;2.70;;
74670;SDS011;63196;39.564;2.628;2023-03-26T09:13:22;7.00;;;2.60;;
74670;SDS011;63196;39.564;2.628;2023-03-26T09:32:30;4.10;;;1.70;;
74670;SDS011;63196;39.564;2.628;2023-03-26T09:37:24;6.20;;;1.90;;
74670;SDS011;63196;39.564;2.628;2023-03-26T10:11:12;4.00;;;1.40;;
74670;SDS011;63196;39.564;2.628;2023-03-26T10:13:57;4.30;;;1.80;;
74670;SDS011;63196;39.564;2.628;2023-03-26T10:16:44;4.30;;;1.60;;
74670;SDS011;63196;39.564;2.628;2023-03-26T10:21:59;4.10;;;1.50;;
74670;SDS011;63196;39.564;2.628;2023-03-26T10:50:15;4.10;;;1.50;;
74670;SDS011;63196;39.564;2.628;2023-03-26T10:52:51;3.30;;;1.30;;
74670;SDS011;63196;39.564;2.628;2023-03-26T10:55:20;4.60;;;1.50;;
74670;SDS011;63196;39.564;2.628;2023-03-26T10:57:48;3.50;;;1.50;;
74670;SDS011;63196;39.564;2.628;2023-03-26T11:00:17;4.50;;;1.30;;
74670;SDS011;63196;39.564;2.628;2023-03-26T11:03:16;4.40;;;1.60;;
74670;SDS011;63196;39.564;2.628;2023-03-26T11:05:56;3.80;;;1.50;;
74670;SDS011;63196;39.564;2.628;2023-03-26T11:08:36;4.20;;;1.40;;
74670;SDS011;63196;39.564;2.628;2023-03-26T11:14:22;4.10;;;1.90;;
74670;SDS011;63196;39.564;2.628;2023-03-26T11:17:12;5.30;;;1.70;;
74670;SDS011;63196;39.564;2.628;2023-03-26T11:22:08;4.80;;;1.70;;
74670;SDS011;63196;39.564;2.628;2023-03-26T11:27:05;5.40;;;1.70;;
74670;SDS011;63196;39.564;2.628;2023-03-26T11:32:24;4.70;;;1.40;;
74670;SDS011;63196;39.564;2.628;2023-03-26T11:37:22;3.80;;;1.50;;
74670;SDS011;63196;39.564;2.628;2023-03-26T11:42:23;6.10;;;1.70;;
74670;SDS011;63196;39.564;2.628;2023-03-26T11:49:40;4.60;;;1.50;;
74670;SDS011;63196;39.564;2.628;2023-03-26T11:52:08;3.70;;;1.20;;
74670;SDS011;63196;39.564;2.628;2023-03-26T11:54:34;3.80;;;1.50;;
74670;SDS011;63196;39.564;2.628;2023-03-26T11:57:02;3.30;;;1.50;;
74670;SDS011;63196;39.564;2.628;2023-03-26T11:59:34;4.30;;;1.40;;
74670;SDS011;63196;39.564;2.628;2023-03-26T12:04:34;3.80;;;1.20;;
74670;SDS011;63196;39.564;2.628;2023-03-26T12:07:19;4.60;;;1.50;;
74670;SDS011;63196;39.564;2.628;2023-03-26T12:12:10;4.30;;;1.40;;
74670;SDS011;63196;39.564;2.628;2023-03-26T12:14:40;4.00;;;1.90;;
74670;SDS011;63196;39.564;2.628;2023-03-26T12:17:07;4.40;;;1.30;;
74670;SDS011;63196;39.564;2.628;2023-03-26T12:19:37;3.90;;;1.60;;
74670;SDS011;63196;39.564;2.628;2023-03-26T12:22:03;4.10;;;1.50;;
74670;SDS011;63196;39.564;2.628;2023-03-26T12:26:55;5.60;;;1.40;;
74670;SDS011;63196;39.564;2.628;2023-03-26T12:34:16;4.60;;;1.30;;
74670;SDS011;63196;39.564;2.628;2023-03-26T12:36:52;4.10;;;1.20;;
74670;SDS011;63196;39.564;2.628;2023-03-26T12:39:32;3.80;;;1.40;;
74670;SDS011;63196;39.564;2.628;2023-03-26T12:41:59;3.50;;;1.00;;
74670;SDS011;63196;39.564;2.628;2023-03-26T12:47:08;5.10;;;1.40;;
74670;SDS011;63196;39.564;2.628;2023-03-26T12:49:34;5.50;;;1.90;;
74670;SDS011;63196;39.564;2.628;2023-03-26T12:57:28;7.60;;;1.90;;
74670;SDS011;63196;39.564;2.628;2023-03-26T13:04:53;4.80;;;1.50;;
74670;SDS011;63196;39.564;2.628;2023-03-26T13:07:24;4.40;;;1.80;;
74670;SDS011;63196;39.564;2.628;2023-03-26T13:10:06;8.50;;;2.10;;
74670;SDS011;63196;39.564;2.628;2023-03-26T13:15:24;3.30;;;0.80;;
74670;SDS011;63196;39.564;2.628;2023-03-26T13:17:56;3.90;;;1.60;;
74670;SDS011;63196;39.564;2.628;2023-03-26T13:23:00;4.10;;;1.60;;
74670;SDS011;63196;39.564;2.628;2023-03-26T13:30:40;6.10;;;1.70;;
74670;SDS011;63196;39.564;2.628;2023-03-26T13:36:04;4.20;;;1.40;;
74670;SDS011;63196;39.564;2.628;2023-03-26T13:41:24;5.60;;;1.40;;
74670;SDS011;63196;39.564;2.628;2023-03-26T13:46:50;3.50;;;1.30;;
74670;SDS011;63196;39.564;2.628;2023-03-26T13:52:02;3.90;;;1.30;;
74670;SDS011;63196;39.564;2.628;2023-03-26T13:54:31;3.70;;;1.40;;
74670;SDS011;63196;39.564;2.628;2023-03-26T13:57:02;5.70;;;1.10;;
74670;SDS011;63196;39.564;2.628;2023-03-26T13:59:39;5.10;;;1.60;;
74670;SDS011;63196;39.564;2.628;2023-03-26T14:02:13;2.80;;;1.10;;
74670;SDS011;63196;39.564;2.628;2023-03-26T14:04:43;3.20;;;1.30;;
74670;SDS011;63196;39.564;2.628;2023-03-26T14:10:09;4.30;;;1.30;;
74670;SDS011;63196;39.564;2.628;2023-03-26T14:12:55;3.20;;;0.90;;
74670;SDS011;63196;39.564;2.628;2023-03-26T14:46:06;3.20;;;1.10;;
74670;SDS011;63196;39.564;2.628;2023-03-26T14:51:10;5.30;;;1.30;;
74670;SDS011;63196;39.564;2.628;2023-03-26T14:53:43;3.20;;;1.30;;
74670;SDS011;63196;39.564;2.628;2023-03-26T14:56:35;5.10;;;1.50;;
74670;SDS011;63196;39.564;2.628;2023-03-26T15:05:10;3.50;;;1.40;;
74670;SDS011;63196;39.564;2.628;2023-03-26T15:07:54;4.10;;;1.40;;
74670;SDS011;63196;39.564;2.628;2023-03-26T15:16:06;4.30;;;1.60;;
74670;SDS011;63196;39.564;2.628;2023-03-26T15:37:02;2.80;;;1.30;;
74670;SDS011;63196;39.564;2.628;2023-03-26T15:44:53;4.60;;;1.50;;
74670;SDS011;63196;39.564;2.628;2023-03-26T15:52:26;5.30;;;1.50;;
74670;SDS011;63196;39.564;2.628;2023-03-26T15:57:33;3.40;;;1.40;;
74670;SDS011;63196;39.564;2.628;2023-03-26T16:05:26;6.70;;;1.80;;
74670;SDS011;63196;39.564;2.628;2023-03-26T16:07:57;5.40;;;1.70;;
74670;SDS011;63196;39.564;2.628;2023-03-26T16:15:38;6.50;;;1.50;;
74670;SDS011;63196;39.564;2.628;2023-03-26T16:20:43;2.40;;;0.90;;
74670;SDS011;63196;39.564;2.628;2023-03-26T16:25:59;3.60;;;1.00;;
74670;SDS011;63196;39.564;2.628;2023-03-26T16:33:44;2.40;;;1.00;;
74670;SDS011;63196;39.564;2.628;2023-03-26T16:38:48;2.50;;;0.90;;
74670;SDS011;63196;39.564;2.628;2023-03-26T16:41:22;2.80;;;0.90;;
74670;SDS011;63196;39.564;2.628;2023-03-26T16:46:42;2.20;;;0.70;;
74670;SDS011;63196;39.564;2.628;2023-03-26T17:02:42;4.30;;;1.70;;
74670;SDS011;63196;39.564;2.628;2023-03-26T17:05:36;3.00;;;1.10;;
74670;SDS011;63196;39.564;2.628;2023-03-26T17:13:27;2.40;;;0.90;;
74670;SDS011;63196;39.564;2.628;2023-03-26T17:16:14;2.60;;;0.90;;
74670;SDS011;63196;39.564;2.628;2023-03-26T17:18:56;1.90;;;0.70;;
74670;SDS011;63196;39.564;2.628;2023-03-26T17:21:45;2.70;;;0.90;;
74670;SDS011;63196;39.564;2.628;2023-03-26T17:29:26;3.40;;;1.00;;
74670;SDS011;63196;39.564;2.628;2023-03-26T17:31:58;2.50;;;0.90;;
74670;SDS011;63196;39.564;2.628;2023-03-26T17:34:51;3.60;;;1.20;;
74670;SDS011;63196;39.564;2.628;2023-03-26T17:42:15;2.50;;;0.90;;
74670;SDS011;63196;39.564;2.628;2023-03-26T17:50:25;2.30;;;0.70;;
74670;SDS011;63196;39.564;2.628;2023-03-26T17:55:25;4.00;;;1.00;;
74670;SDS011;63196;39.564;2.628;2023-03-26T17:58:00;3.40;;;1.20;;
74670;SDS011;63196;39.564;2.628;2023-03-26T18:00:28;2.50;;;0.90;;
74670;SDS011;63196;39.564;2.628;2023-03-26T18:02:57;3.90;;;0.90;;
74670;SDS011;63196;39.564;2.628;2023-03-26T18:05:26;3.90;;;1.00;;
74670;SDS011;63196;39.564;2.628;2023-03-26T18:18:09;3.40;;;1.00;;
74670;SDS011;63196;39.564;2.628;2023-03-26T18:20:36;2.10;;;0.90;;
74670;SDS011;63196;39.564;2.628;2023-03-26T18:23:09;3.20;;;0.80;;
74670;SDS011;63196;39.564;2.628;2023-03-26T18:25:35;3.50;;;1.10;;
74670;SDS011;63196;39.564;2.628;2023-03-26T18:28:00;2.70;;;1.00;;
74670;SDS011;63196;39.564;2.628;2023-03-26T18:30:28;2.90;;;1.00;;
74670;SDS011;63196;39.564;2.628;2023-03-26T18:33:01;2.80;;;0.70;;
74670;SDS011;63196;39.564;2.628;2023-03-26T18:35:36;2.90;;;1.00;;
74670;SDS011;63196;39.564;2.628;2023-03-26T18:38:02;2.80;;;1.00;;
74670;SDS011;63196;39.564;2.628;2023-03-26T18:40:32;4.40;;;1.10;;
74670;SDS011;63196;39.564;2.628;2023-03-26T18:43:03;2.30;;;0.90;;
74670;SDS011;63196;39.564;2.628;2023-03-26T18:45:34;4.60;;;1.60;;
74670;SDS011;63196;39.564;2.628;2023-03-26T18:48:03;3.90;;;1.20;;
74670;SDS011;63196;39.564;2.628;2023-03-26T18:50:34;3.60;;;1.30;;
74670;SDS011;63196;39.564;2.628;2023-03-26T18:53:01;3.00;;;1.10;;
74670;SDS011;63196;39.564;2.628;2023-03-26T18:55:28;2.90;;;1.10;;
74670;SDS011;63196;39.564;2.628;2023-03-26T18:57:54;4.50;;;1.90;;
74670;SDS011;63196;39.564;2.628;2023-03-26T19:00:21;4.60;;;1.80;;
74670;SDS011;63196;39.564;2.628;2023-03-26T19:02:47;4.60;;;1.80;;
74670;SDS011;63196;39.564;2.628;2023-03-26T19:05:15;3.70;;;1.70;;
74670;SDS011;63196;39.564;2.628;2023-03-26T19:07:41;6.30;;;2.40;;
74670;SDS011;63196;39.564;2.628;2023-03-26T19:10:12;5.60;;;2.30;;
74670;SDS011;63196;39.564;2.628;2023-03-26T19:12:39;4.70;;;2.10;;
74670;SDS011;63196;39.564;2.628;2023-03-26T19:15:09;5.50;;;1.90;;
74670;SDS011;63196;39.564;2.628;2023-03-26T19:17:40;5.30;;;1.70;;
74670;SDS011;63196;39.564;2.628;2023-03-26T19:20:12;5.50;;;2.10;;
74670;SDS011;63196;39.564;2.628;2023-03-26T19:22:40;5.70;;;1.80;;
74670;SDS011;63196;39.564;2.628;2023-03-26T19:25:07;4.90;;;1.70;;
74670;SDS011;63196;39.564;2.628;2023-03-26T19:27:40;4.50;;;1.70;;
74670;SDS011;63196;39.564;2.628;2023-03-26T19:30:16;4.40;;;1.80;;
74670;SDS011;63196;39.564;2.628;2023-03-26T19:32:50;4.20;;;1.60;;
74670;SDS011;63196;39.564;2.628;2023-03-26T19:37:51;3.40;;;1.40;;
74670;SDS011;63196;39.564;2.628;2023-03-26T19:40:26;5.00;;;1.70;;
74670;SDS011;63196;39.564;2.628;2023-03-26T19:45:21;3.50;;;1.30;;
74670;SDS011;63196;39.564;2.628;2023-03-26T19:47:51;4.00;;;1.50;;
74670;SDS011;63196;39.564;2.628;2023-03-26T19:50:28;3.10;;;1.30;;
74670;SDS011;63196;39.564;2.628;2023-03-26T19:55:35;3.20;;;0.90;;
74670;SDS011;63196;39.564;2.628;2023-03-26T19:58:04;3.90;;;0.90;;
74670;SDS011;63196;39.564;2.628;2023-03-26T20:00:33;3.40;;;1.10;;
74670;SDS011;63196;39.564;2.628;2023-03-26T20:02:59;2.90;;;1.30;;
74670;SDS011;63196;39.564;2.628;2023-03-26T20:05:30;6.00;;;1.60;;
74670;SDS011;63196;39.564;2.628;2023-03-26T20:07:58;5.00;;;1.60;;
74670;SDS011;63196;39.564;2.628;2023-03-26T20:10:26;4.30;;;1.50;;
74670;SDS011;63196;39.564;2.628;2023-03-26T20:12:53;3.60;;;1.40;;
74670;SDS011;63196;39.564;2.628;2023-03-26T20:17:48;2.80;;;1.00;;
74670;SDS011;63196;39.564;2.628;2023-03-26T20:20:19;2.10;;;0.70;;
74670;SDS011;63196;39.564;2.628;2023-03-26T20:22:45;2.50;;;0.80;;
74670;SDS011;63196;39.564;2.628;2023-03-26T20:25:31;5.00;;;1.20;;
74670;SDS011;63196;39.564;2.628;2023-03-26T20:30:23;3.40;;;0.80;;
74670;SDS011;63196;39.564;2.628;2023-03-26T20:32:49;2.70;;;0.90;;
74670;SDS011;63196;39.564;2.628;2023-03-26T20:35:17;2.70;;;1.00;;
74670;SDS011;63196;39.564;2.628;2023-03-26T20:37:57;2.80;;;0.90;;
74670;SDS011;63196;39.564;2.628;2023-03-26T20:40:22;2.80;;;1.00;;
74670;SDS011;63196;39.564;2.628;2023-03-26T20:42:49;3.10;;;1.00;;
74670;SDS011;63196;39.564;2.628;2023-03-26T20:45:17;2.50;;;1.00;;
74670;SDS011;63196;39.564;2.628;2023-03-26T20:47:43;2.00;;;0.70;;
74670;SDS011;63196;39.564;2.628;2023-03-26T20:50:11;2.70;;;0.80;;
74670;SDS011;63196;39.564;2.628;2023-03-26T20:55:04;3.50;;;0.60;;
74670;SDS011;63196;39.564;2.628;2023-03-26T20:57:30;2.40;;;0.80;;
74670;SDS011;63196;39.564;2.628;2023-03-26T20:59:58;2.30;;;0.80;;
74670;SDS011;63196;39.564;2.628;2023-03-26T21:02:23;3.20;;;1.00;;
74670;SDS011;63196;39.564;2.628;2023-03-26T21:04:49;3.30;;;1.20;;
74670;SDS011;63196;39.564;2.628;2023-03-26T21:07:14;3.00;;;1.00;;
74670;SDS011;63196;39.564;2.628;2023-03-26T21:09:40;3.70;;;1.30;;
74670;SDS011;63196;39.564;2.628;2023-03-26T21:12:14;3.50;;;1.10;;
74670;SDS011;63196;39.564;2.628;2023-03-26T21:14:41;2.70;;;1.10;;
74670;SDS011;63196;39.564;2.628;2023-03-26T21:17:14;3.20;;;1.30;;
74670;SDS011;63196;39.564;2.628;2023-03-26T21:19:40;3.00;;;1.20;;
74670;SDS011;63196;39.564;2.628;2023-03-26T21:24:41;4.00;;;1.00;;
74670;SDS011;63196;39.564;2.628;2023-03-26T21:27:23;5.20;;;1.40;;
74670;SDS011;63196;39.564;2.628;2023-03-26T21:29:53;3.20;;;1.00;;